sensor_id;sensor_type;location;lat;lon;timestamp;P1;P2;P0
63707;PMS5003;67643;-34.198;22.084;2023-08-21T00:01:04;6;6;
63707;PMS5003;67643;-34.198;22.084;2023-08-21T00:03:33;5;5;
63707;PMS5003;67643;-34.198;22.084;2023-08-21T00:06:01;7;7;
63707;PMS5003;67643;-34.198;22.084;2023-08-21T00:08:30;7;7;
63707;PMS5003;67643;-34.198;22.084;2023-08-21T00:10:58;5;5;
63707;PMS5003;67643;-34.198;22.084;2023-08-21T00:13:28;9;6;
63707;PMS5003;67643;-34.198;22.084;2023-08-21T00:15:56;7;5;
63707;PMS5003;67643;-34.198;22.084;2023-08-21T00:18:24;3;3;
63707;PMS5003;67643;-34.198;22.084;2023-08-21T00:20:53;3;3;
63707;PMS5003;67643;-34.198;22.084;2023-08-21T00:23:21;4;4;
63707;PMS5003;67643;-34.198;22.084;2023-08-21T00:25:50;5;5;
63707;PMS5003;67643;-34.198;22.084;2023-08-21T00:28:18;7;7;
63707;PMS5003;67643;-34.198;22.084;2023-08-21T00:30:47;8;7;
63707;PMS5003;67643;-34.198;22.084;2023-08-21T00:33:15;4;4;
63707;PMS5003;67643;-34.198;22.084;2023-08-21T00:35:44;3;3;
63707;PMS5003;67643;-34.198;22.084;2023-08-21T00:38:13;3;3;
63707;PMS5003;67643;-34.198;22.084;2023-08-21T00:40:41;3;3;
63707;PMS5003;67643;-34.198;22.084;2023-08-21T00:43:10;3;3;
63707;PMS5003;67643;-34.198;22.084;2023-08-21T00:45:38;2;2;
63707;PMS5003;67643;-34.198;22.084;2023-08-21T00:48:11;3;3;
63707;PMS5003;67643;-34.198;22.084;2023-08-21T00:50:40;3;3;
63707;PMS5003;67643;-34.198;22.084;2023-08-21T00:53:08;4;2;
63707;PMS5003;67643;-34.198;22.084;2023-08-21T00:55:37;3;2;
63707;PMS5003;67643;-34.198;22.084;2023-08-21T00:58:06;2;1;
63707;PMS5003;67643;-34.198;22.084;2023-08-21T01:00:36;4;3;
63707;PMS5003;67643;-34.198;22.084;2023-08-21T01:03:04;2;2;
63707;PMS5003;67643;-34.198;22.084;2023-08-21T01:05:34;4;2;
63707;PMS5003;67643;-34.198;22.084;2023-08-21T01:08:03;2;2;
63707;PMS5003;67643;-34.198;22.084;2023-08-21T01:10:41;2;2;
63707;PMS5003;67643;-34.198;22.084;2023-08-21T01:13:22;5;3;
63707;PMS5003;67643;-34.198;22.084;2023-08-21T01:16:04;1;1;
63707;PMS5003;67643;-34.198;22.084;2023-08-21T01:18:34;3;2;
63707;PMS5003;67643;-34.198;22.084;2023-08-21T01:21:04;3;3;
63707;PMS5003;67643;-34.198;22.084;2023-08-21T01:23:33;6;4;
63707;PMS5003;67643;-34.198;22.084;2023-08-21T01:26:02;5;4;
63707;PMS5003;67643;-34.198;22.084;2023-08-21T01:28:32;6;5;
63707;PMS5003;67643;-34.198;22.084;2023-08-21T01:31:03;5;5;
63707;PMS5003;67643;-34.198;22.084;2023-08-21T01:33:37;3;3;
63707;PMS5003;67643;-34.198;22.084;2023-08-21T01:36:11;3;3;
63707;PMS5003;67643;-34.198;22.084;2023-08-21T01:38:40;3;2;
63707;PMS5003;67643;-34.198;22.084;2023-08-21T01:41:08;3;3;
63707;PMS5003;67643;-34.198;22.084;2023-08-21T01:43:37;4;4;
63707;PMS5003;67643;-34.198;22.084;2023-08-21T01:46:05;3;2;
63707;PMS5003;67643;-34.198;22.084;2023-08-21T01:48:34;1;1;
63707;PMS5003;67643;-34.198;22.084;2023-08-21T01:51:03;0;0;
63707;PMS5003;67643;-34.198;22.084;2023-08-21T01:53:31;1;1;
63707;PMS5003;67643;-34.198;22.084;2023-08-21T01:56:00;3;2;
63707;PMS5003;67643;-34.198;22.084;2023-08-21T01:58:28;3;0;
63707;PMS5003;67643;-34.198;22.084;2023-08-21T02:02:29;0;0;
63707;PMS5003;67643;-34.198;22.084;2023-08-21T02:04:57;2;1;
63707;PMS5003;67643;-34.198;22.084;2023-08-21T02:07:25;1;1;
63707;PMS5003;67643;-34.198;22.084;2023-08-21T02:09:54;1;1;
63707;PMS5003;67643;-34.198;22.084;2023-08-21T02:12:23;0;0;
63707;PMS5003;67643;-34.198;22.084;2023-08-21T02:14:51;1;1;
63707;PMS5003;67643;-34.198;22.084;2023-08-21T02:17:20;0;0;
63707;PMS5003;67643;-34.198;22.084;2023-08-21T02:19:48;1;1;
63707;PMS5003;67643;-34.198;22.084;2023-08-21T02:22:17;1;1;
63707;PMS5003;67643;-34.198;22.084;2023-08-21T02:24:45;0;0;
63707;PMS5003;67643;-34.198;22.084;2023-08-21T02:27:14;0;0;
63707;PMS5003;67643;-34.198;22.084;2023-08-21T02:29:43;1;1;
63707;PMS5003;67643;-34.198;22.084;2023-08-21T02:32:11;0;0;
63707;PMS5003;67643;-34.198;22.084;2023-08-21T02:34:40;0;0;
63707;PMS5003;67643;-34.198;22.084;2023-08-21T02:37:08;1;1;
63707;PMS5003;67643;-34.198;22.084;2023-08-21T02:39:37;2;1;
63707;PMS5003;67643;-34.198;22.084;2023-08-21T02:42:06;1;1;
63707;PMS5003;67643;-34.198;22.084;2023-08-21T02:44:34;1;1;
63707;PMS5003;67643;-34.198;22.084;2023-08-21T02:47:03;0;0;
63707;PMS5003;67643;-34.198;22.084;2023-08-21T02:49:31;0;0;
63707;PMS5003;67643;-34.198;22.084;2023-08-21T02:52:00;0;0;
63707;PMS5003;67643;-34.198;22.084;2023-08-21T02:54:28;0;0;
63707;PMS5003;67643;-34.198;22.084;2023-08-21T02:56:57;0;0;
63707;PMS5003;67643;-34.198;22.084;2023-08-21T02:59:25;1;1;
63707;PMS5003;67643;-34.198;22.084;2023-08-21T03:01:54;2;1;
63707;PMS5003;67643;-34.198;22.084;2023-08-21T03:04:23;1;1;
63707;PMS5003;67643;-34.198;22.084;2023-08-21T03:06:51;0;0;
63707;PMS5003;67643;-34.198;22.084;2023-08-21T03:09:20;0;0;
63707;PMS5003;67643;-34.198;22.084;2023-08-21T03:11:48;0;0;
63707;PMS5003;67643;-34.198;22.084;2023-08-21T03:14:17;0;0;
63707;PMS5003;67643;-34.198;22.084;2023-08-21T03:16:45;0;0;
63707;PMS5003;67643;-34.198;22.084;2023-08-21T03:19:15;0;0;
63707;PMS5003;67643;-34.198;22.084;2023-08-21T03:21:43;0;0;
63707;PMS5003;67643;-34.198;22.084;2023-08-21T03:24:11;0;0;
63707;PMS5003;67643;-34.198;22.084;2023-08-21T03:26:40;1;1;
63707;PMS5003;67643;-34.198;22.084;2023-08-21T03:29:08;1;1;
63707;PMS5003;67643;-34.198;22.084;2023-08-21T03:31:37;0;0;
63707;PMS5003;67643;-34.198;22.084;2023-08-21T03:34:05;0;0;
63707;PMS5003;67643;-34.198;22.084;2023-08-21T03:36:34;0;0;
63707;PMS5003;67643;-34.198;22.084;2023-08-21T03:39:03;0;0;
63707;PMS5003;67643;-34.198;22.084;2023-08-21T03:41:31;1;1;
63707;PMS5003;67643;-34.198;22.084;2023-08-21T03:44:00;1;1;
63707;PMS5003;67643;-34.198;22.084;2023-08-21T03:46:29;1;1;
63707;PMS5003;67643;-34.198;22.084;2023-08-21T03:48:57;1;1;
63707;PMS5003;67643;-34.198;22.084;2023-08-21T03:51:26;3;1;
63707;PMS5003;67643;-34.198;22.084;2023-08-21T03:53:54;1;1;
63707;PMS5003;67643;-34.198;22.084;2023-08-21T03:56:23;2;1;
63707;PMS5003;67643;-34.198;22.084;2023-08-21T03:58:51;0;0;
63707;PMS5003;67643;-34.198;22.084;2023-08-21T04:01:20;0;0;
63707;PMS5003;67643;-34.198;22.084;2023-08-21T04:03:49;1;1;
63707;PMS5003;67643;-34.198;22.084;2023-08-21T04:06:17;1;1;
63707;PMS5003;67643;-34.198;22.084;2023-08-21T04:08:46;0;0;
63707;PMS5003;67643;-34.198;22.084;2023-08-21T04:11:14;1;1;
63707;PMS5003;67643;-34.198;22.084;2023-08-21T04:13:43;1;1;
63707;PMS5003;67643;-34.198;22.084;2023-08-21T04:16:11;0;0;
63707;PMS5003;67643;-34.198;22.084;2023-08-21T04:18:40;0;0;
63707;PMS5003;67643;-34.198;22.084;2023-08-21T04:21:09;0;0;
63707;PMS5003;67643;-34.198;22.084;2023-08-21T04:23:37;1;1;
63707;PMS5003;67643;-34.198;22.084;2023-08-21T04:26:06;0;0;
63707;PMS5003;67643;-34.198;22.084;2023-08-21T04:28:35;0;0;
63707;PMS5003;67643;-34.198;22.084;2023-08-21T04:31:04;1;1;
63707;PMS5003;67643;-34.198;22.084;2023-08-21T04:33:33;1;1;
63707;PMS5003;67643;-34.198;22.084;2023-08-21T04:36:01;1;1;
63707;PMS5003;67643;-34.198;22.084;2023-08-21T04:38:29;0;0;
63707;PMS5003;67643;-34.198;22.084;2023-08-21T04:41:05;1;1;
63707;PMS5003;67643;-34.198;22.084;2023-08-21T04:43:34;0;0;
63707;PMS5003;67643;-34.198;22.084;2023-08-21T04:46:03;1;1;
63707;PMS5003;67643;-34.198;22.084;2023-08-21T04:48:31;1;1;
63707;PMS5003;67643;-34.198;22.084;2023-08-21T04:51:00;2;2;
63707;PMS5003;67643;-34.198;22.084;2023-08-21T04:53:29;0;0;
63707;PMS5003;67643;-34.198;22.084;2023-08-21T04:55:58;1;1;
63707;PMS5003;67643;-34.198;22.084;2023-08-21T04:58:27;2;0;
63707;PMS5003;67643;-34.198;22.084;2023-08-21T05:00:55;1;1;
63707;PMS5003;67643;-34.198;22.084;2023-08-21T05:03:24;0;0;
63707;PMS5003;67643;-34.198;22.084;2023-08-21T05:05:53;0;0;
63707;PMS5003;67643;-34.198;22.084;2023-08-21T05:08:22;0;0;
63707;PMS5003;67643;-34.198;22.084;2023-08-21T05:10:54;0;0;
63707;PMS5003;67643;-34.198;22.084;2023-08-21T05:13:23;0;0;
63707;PMS5003;67643;-34.198;22.084;2023-08-21T05:15:52;1;1;
63707;PMS5003;67643;-34.198;22.084;2023-08-21T05:18:21;0;0;
63707;PMS5003;67643;-34.198;22.084;2023-08-21T05:20:54;0;0;
63707;PMS5003;67643;-34.198;22.084;2023-08-21T05:23:23;2;0;
63707;PMS5003;67643;-34.198;22.084;2023-08-21T05:25:51;3;0;
63707;PMS5003;67643;-34.198;22.084;2023-08-21T05:28:20;1;0;
63707;PMS5003;67643;-34.198;22.084;2023-08-21T05:30:48;0;0;
63707;PMS5003;67643;-34.198;22.084;2023-08-21T05:33:17;2;0;
63707;PMS5003;67643;-34.198;22.084;2023-08-21T05:35:46;0;0;
63707;PMS5003;67643;-34.198;22.084;2023-08-21T05:38:15;1;0;
63707;PMS5003;67643;-34.198;22.084;2023-08-21T05:40:43;0;0;
63707;PMS5003;67643;-34.198;22.084;2023-08-21T05:43:12;3;2;
63707;PMS5003;67643;-34.198;22.084;2023-08-21T05:45:40;1;0;
63707;PMS5003;67643;-34.198;22.084;2023-08-21T05:48:09;1;0;
63707;PMS5003;67643;-34.198;22.084;2023-08-21T05:50:39;0;0;
63707;PMS5003;67643;-34.198;22.084;2023-08-21T05:53:07;0;0;
63707;PMS5003;67643;-34.198;22.084;2023-08-21T05:55:36;1;0;
63707;PMS5003;67643;-34.198;22.084;2023-08-21T05:58:05;2;0;
63707;PMS5003;67643;-34.198;22.084;2023-08-21T06:00:33;1;1;
63707;PMS5003;67643;-34.198;22.084;2023-08-21T06:03:02;0;0;
63707;PMS5003;67643;-34.198;22.084;2023-08-21T06:05:32;2;0;
63707;PMS5003;67643;-34.198;22.084;2023-08-21T06:08:00;0;0;
63707;PMS5003;67643;-34.198;22.084;2023-08-21T06:10:30;1;1;
63707;PMS5003;67643;-34.198;22.084;2023-08-21T06:12:58;1;1;
63707;PMS5003;67643;-34.198;22.084;2023-08-21T06:15:27;1;0;
63707;PMS5003;67643;-34.198;22.084;2023-08-21T06:17:55;1;1;
63707;PMS5003;67643;-34.198;22.084;2023-08-21T06:20:24;1;1;
63707;PMS5003;67643;-34.198;22.084;2023-08-21T06:22:52;3;2;
63707;PMS5003;67643;-34.198;22.084;2023-08-21T06:25:22;1;1;
63707;PMS5003;67643;-34.198;22.084;2023-08-21T06:27:50;1;1;
63707;PMS5003;67643;-34.198;22.084;2023-08-21T06:30:18;1;1;
63707;PMS5003;67643;-34.198;22.084;2023-08-21T06:32:47;1;1;
63707;PMS5003;67643;-34.198;22.084;2023-08-21T06:35:15;1;1;
63707;PMS5003;67643;-34.198;22.084;2023-08-21T06:37:44;2;2;
63707;PMS5003;67643;-34.198;22.084;2023-08-21T06:40:13;3;0;
63707;PMS5003;67643;-34.198;22.084;2023-08-21T06:42:41;3;3;
63707;PMS5003;67643;-34.198;22.084;2023-08-21T06:45:10;2;0;
63707;PMS5003;67643;-34.198;22.084;2023-08-21T06:47:38;3;2;
63707;PMS5003;67643;-34.198;22.084;2023-08-21T06:50:07;2;2;
63707;PMS5003;67643;-34.198;22.084;2023-08-21T06:52:36;3;2;
63707;PMS5003;67643;-34.198;22.084;2023-08-21T06:55:06;2;2;
63707;PMS5003;67643;-34.198;22.084;2023-08-21T06:57:34;2;2;
63707;PMS5003;67643;-34.198;22.084;2023-08-21T07:00:04;4;2;
63707;PMS5003;67643;-34.198;22.084;2023-08-21T07:02:33;3;2;
63707;PMS5003;67643;-34.198;22.084;2023-08-21T07:05:02;2;2;
63707;PMS5003;67643;-34.198;22.084;2023-08-21T07:07:30;3;1;
63707;PMS5003;67643;-34.198;22.084;2023-08-21T07:10:00;3;3;
63707;PMS5003;67643;-34.198;22.084;2023-08-21T07:12:29;3;3;
63707;PMS5003;67643;-34.198;22.084;2023-08-21T07:14:57;4;2;
63707;PMS5003;67643;-34.198;22.084;2023-08-21T07:17:26;4;2;
63707;PMS5003;67643;-34.198;22.084;2023-08-21T07:19:54;4;3;
63707;PMS5003;67643;-34.198;22.084;2023-08-21T07:22:23;2;2;
63707;PMS5003;67643;-34.198;22.084;2023-08-21T07:24:51;2;2;
63707;PMS5003;67643;-34.198;22.084;2023-08-21T07:27:20;5;2;
63707;PMS5003;67643;-34.198;22.084;2023-08-21T07:29:49;3;2;
63707;PMS5003;67643;-34.198;22.084;2023-08-21T07:32:17;3;2;
63707;PMS5003;67643;-34.198;22.084;2023-08-21T07:34:46;1;1;
63707;PMS5003;67643;-34.198;22.084;2023-08-21T07:37:14;2;2;
63707;PMS5003;67643;-34.198;22.084;2023-08-21T07:39:43;1;1;
63707;PMS5003;67643;-34.198;22.084;2023-08-21T07:42:12;2;1;
63707;PMS5003;67643;-34.198;22.084;2023-08-21T07:44:40;4;4;
63707;PMS5003;67643;-34.198;22.084;2023-08-21T07:47:09;2;1;
63707;PMS5003;67643;-34.198;22.084;2023-08-21T07:49:37;2;2;
63707;PMS5003;67643;-34.198;22.084;2023-08-21T07:52:06;3;2;
63707;PMS5003;67643;-34.198;22.084;2023-08-21T07:54:34;1;1;
63707;PMS5003;67643;-34.198;22.084;2023-08-21T07:57:03;3;1;
63707;PMS5003;67643;-34.198;22.084;2023-08-21T07:59:31;1;1;
63707;PMS5003;67643;-34.198;22.084;2023-08-21T08:02:00;3;2;
63707;PMS5003;67643;-34.198;22.084;2023-08-21T08:04:29;1;1;
63707;PMS5003;67643;-34.198;22.084;2023-08-21T08:06:57;3;2;
63707;PMS5003;67643;-34.198;22.084;2023-08-21T08:09:25;5;5;
63707;PMS5003;67643;-34.198;22.084;2023-08-21T08:11:54;0;0;
63707;PMS5003;67643;-34.198;22.084;2023-08-21T08:14:22;0;0;
63707;PMS5003;67643;-34.198;22.084;2023-08-21T08:16:51;1;1;
63707;PMS5003;67643;-34.198;22.084;2023-08-21T08:19:20;1;1;
63707;PMS5003;67643;-34.198;22.084;2023-08-21T08:21:48;0;0;
63707;PMS5003;67643;-34.198;22.084;2023-08-21T08:24:17;1;1;
63707;PMS5003;67643;-34.198;22.084;2023-08-21T08:26:45;1;0;
63707;PMS5003;67643;-34.198;22.084;2023-08-21T08:30:12;3;2;
63707;PMS5003;67643;-34.198;22.084;2023-08-21T08:32:43;1;0;
63707;PMS5003;67643;-34.198;22.084;2023-08-21T08:35:12;0;0;
63707;PMS5003;67643;-34.198;22.084;2023-08-21T08:37:41;0;0;
63707;PMS5003;67643;-34.198;22.084;2023-08-21T08:40:10;2;0;
63707;PMS5003;67643;-34.198;22.084;2023-08-21T08:42:39;2;1;
63707;PMS5003;67643;-34.198;22.084;2023-08-21T08:45:08;2;1;
63707;PMS5003;67643;-34.198;22.084;2023-08-21T08:47:40;3;1;
63707;PMS5003;67643;-34.198;22.084;2023-08-21T08:50:08;2;0;
63707;PMS5003;67643;-34.198;22.084;2023-08-21T08:52:37;3;0;
63707;PMS5003;67643;-34.198;22.084;2023-08-21T08:55:07;1;1;
63707;PMS5003;67643;-34.198;22.084;2023-08-21T08:57:35;1;1;
63707;PMS5003;67643;-34.198;22.084;2023-08-21T09:00:04;1;1;
63707;PMS5003;67643;-34.198;22.084;2023-08-21T09:02:33;0;0;
63707;PMS5003;67643;-34.198;22.084;2023-08-21T09:05:02;5;2;
63707;PMS5003;67643;-34.198;22.084;2023-08-21T09:07:30;3;3;
63707;PMS5003;67643;-34.198;22.084;2023-08-21T09:10:00;5;0;
63707;PMS5003;67643;-34.198;22.084;2023-08-21T09:12:31;2;0;
63707;PMS5003;67643;-34.198;22.084;2023-08-21T09:14:59;1;1;
63707;PMS5003;67643;-34.198;22.084;2023-08-21T09:17:33;3;2;
63707;PMS5003;67643;-34.198;22.084;2023-08-21T09:20:05;2;2;
63707;PMS5003;67643;-34.198;22.084;2023-08-21T09:22:35;4;3;
63707;PMS5003;67643;-34.198;22.084;2023-08-21T09:25:04;3;3;
63707;PMS5003;67643;-34.198;22.084;2023-08-21T09:27:33;3;3;
63707;PMS5003;67643;-34.198;22.084;2023-08-21T09:30:03;11;6;
63707;PMS5003;67643;-34.198;22.084;2023-08-21T09:32:33;6;6;
63707;PMS5003;67643;-34.198;22.084;2023-08-21T09:35:20;10;8;
63707;PMS5003;67643;-34.198;22.084;2023-08-21T09:37:48;9;7;
63707;PMS5003;67643;-34.198;22.084;2023-08-21T09:40:17;7;6;
63707;PMS5003;67643;-34.198;22.084;2023-08-21T09:42:46;13;7;
63707;PMS5003;67643;-34.198;22.084;2023-08-21T09:45:20;15;12;
63707;PMS5003;67643;-34.198;22.084;2023-08-21T09:47:49;20;17;
63707;PMS5003;67643;-34.198;22.084;2023-08-21T09:50:18;20;19;
63707;PMS5003;67643;-34.198;22.084;2023-08-21T09:52:46;16;14;
63707;PMS5003;67643;-34.198;22.084;2023-08-21T09:55:15;22;18;
63707;PMS5003;67643;-34.198;22.084;2023-08-21T09:57:45;15;13;
63707;PMS5003;67643;-34.198;22.084;2023-08-21T10:00:15;17;16;
63707;PMS5003;67643;-34.198;22.084;2023-08-21T10:02:44;25;16;
63707;PMS5003;67643;-34.198;22.084;2023-08-21T10:05:16;20;18;
63707;PMS5003;67643;-34.198;22.084;2023-08-21T10:07:45;17;13;
63707;PMS5003;67643;-34.198;22.084;2023-08-21T10:10:16;21;18;
63707;PMS5003;67643;-34.198;22.084;2023-08-21T10:12:45;17;16;
63707;PMS5003;67643;-34.198;22.084;2023-08-21T10:15:15;24;17;
63707;PMS5003;67643;-34.198;22.084;2023-08-21T10:17:43;25;24;
63707;PMS5003;67643;-34.198;22.084;2023-08-21T10:20:11;28;27;
63707;PMS5003;67643;-34.198;22.084;2023-08-21T10:22:42;25;21;
63707;PMS5003;67643;-34.198;22.084;2023-08-21T10:25:15;26;25;
63707;PMS5003;67643;-34.198;22.084;2023-08-21T10:27:45;27;22;
63707;PMS5003;67643;-34.198;22.084;2023-08-21T10:30:19;22;22;
63707;PMS5003;67643;-34.198;22.084;2023-08-21T10:32:49;26;23;
63707;PMS5003;67643;-34.198;22.084;2023-08-21T10:35:19;28;24;
63707;PMS5003;67643;-34.198;22.084;2023-08-21T10:38:21;27;19;
63707;PMS5003;67643;-34.198;22.084;2023-08-21T10:41:04;22;19;
63707;PMS5003;67643;-34.198;22.084;2023-08-21T10:43:41;21;17;
63707;PMS5003;67643;-34.198;22.084;2023-08-21T10:46:11;26;22;
63707;PMS5003;67643;-34.198;22.084;2023-08-21T10:48:40;21;18;
63707;PMS5003;67643;-34.198;22.084;2023-08-21T10:51:08;21;20;
63707;PMS5003;67643;-34.198;22.084;2023-08-21T10:53:37;21;20;
63707;PMS5003;67643;-34.198;22.084;2023-08-21T10:56:05;16;14;
63707;PMS5003;67643;-34.198;22.084;2023-08-21T10:58:34;22;19;
63707;PMS5003;67643;-34.198;22.084;2023-08-21T11:01:05;20;15;
63707;PMS5003;67643;-34.198;22.084;2023-08-21T11:03:34;15;12;
63707;PMS5003;67643;-34.198;22.084;2023-08-21T11:06:06;17;14;
63707;PMS5003;67643;-34.198;22.084;2023-08-21T11:08:36;16;15;
63707;PMS5003;67643;-34.198;22.084;2023-08-21T11:11:05;16;14;
63707;PMS5003;67643;-34.198;22.084;2023-08-21T11:13:34;18;16;
63707;PMS5003;67643;-34.198;22.084;2023-08-21T11:16:02;25;23;
63707;PMS5003;67643;-34.198;22.084;2023-08-21T11:18:33;18;17;
63707;PMS5003;67643;-34.198;22.084;2023-08-21T11:21:03;20;20;
63707;PMS5003;67643;-34.198;22.084;2023-08-21T11:23:33;29;26;
63707;PMS5003;67643;-34.198;22.084;2023-08-21T11:26:01;24;21;
63707;PMS5003;67643;-34.198;22.084;2023-08-21T11:28:30;39;30;
63707;PMS5003;67643;-34.198;22.084;2023-08-21T11:30:59;45;41;
63707;PMS5003;67643;-34.198;22.084;2023-08-21T11:33:28;47;40;
63707;PMS5003;67643;-34.198;22.084;2023-08-21T11:35:58;40;34;
63707;PMS5003;67643;-34.198;22.084;2023-08-21T11:38:28;43;41;
63707;PMS5003;67643;-34.198;22.084;2023-08-21T11:40:57;48;44;
63707;PMS5003;67643;-34.198;22.084;2023-08-21T11:43:36;51;50;
63707;PMS5003;67643;-34.198;22.084;2023-08-21T11:46:06;53;51;
63707;PMS5003;67643;-34.198;22.084;2023-08-21T11:48:36;61;54;
63707;PMS5003;67643;-34.198;22.084;2023-08-21T11:51:06;58;53;
63707;PMS5003;67643;-34.198;22.084;2023-08-21T11:53:36;47;45;
63707;PMS5003;67643;-34.198;22.084;2023-08-21T11:56:09;57;52;
63707;PMS5003;67643;-34.198;22.084;2023-08-21T11:58:39;54;47;
63707;PMS5003;67643;-34.198;22.084;2023-08-21T12:01:08;51;46;
63707;PMS5003;67643;-34.198;22.084;2023-08-21T12:03:37;45;40;
63707;PMS5003;67643;-34.198;22.084;2023-08-21T12:06:07;49;43;
63707;PMS5003;67643;-34.198;22.084;2023-08-21T12:08:35;42;39;
63707;PMS5003;67643;-34.198;22.084;2023-08-21T12:11:04;44;36;
63707;PMS5003;67643;-34.198;22.084;2023-08-21T12:13:33;44;42;
63707;PMS5003;67643;-34.198;22.084;2023-08-21T12:16:07;40;33;
63707;PMS5003;67643;-34.198;22.084;2023-08-21T12:18:35;35;31;
63707;PMS5003;67643;-34.198;22.084;2023-08-21T12:21:04;33;28;
63707;PMS5003;67643;-34.198;22.084;2023-08-21T12:23:32;40;31;
63707;PMS5003;67643;-34.198;22.084;2023-08-21T12:26:01;25;24;
63707;PMS5003;67643;-34.198;22.084;2023-08-21T12:28:33;27;23;
63707;PMS5003;67643;-34.198;22.084;2023-08-21T12:31:01;26;23;
63707;PMS5003;67643;-34.198;22.084;2023-08-21T12:33:30;27;22;
63707;PMS5003;67643;-34.198;22.084;2023-08-21T12:35:59;24;22;
63707;PMS5003;67643;-34.198;22.084;2023-08-21T12:38:28;25;23;
63707;PMS5003;67643;-34.198;22.084;2023-08-21T12:40:57;23;19;
63707;PMS5003;67643;-34.198;22.084;2023-08-21T12:43:26;21;17;
63707;PMS5003;67643;-34.198;22.084;2023-08-21T12:45:54;21;17;
63707;PMS5003;67643;-34.198;22.084;2023-08-21T12:48:23;20;17;
63707;PMS5003;67643;-34.198;22.084;2023-08-21T12:50:51;22;17;
63707;PMS5003;67643;-34.198;22.084;2023-08-21T12:53:20;16;15;
63707;PMS5003;67643;-34.198;22.084;2023-08-21T12:55:48;15;12;
63707;PMS5003;67643;-34.198;22.084;2023-08-21T12:58:16;14;13;
63707;PMS5003;67643;-34.198;22.084;2023-08-21T13:00:44;17;15;
63707;PMS5003;67643;-34.198;22.084;2023-08-21T13:03:13;15;15;
63707;PMS5003;67643;-34.198;22.084;2023-08-21T13:05:41;12;11;
63707;PMS5003;67643;-34.198;22.084;2023-08-21T13:08:10;13;10;
63707;PMS5003;67643;-34.198;22.084;2023-08-21T13:10:38;11;11;
63707;PMS5003;67643;-34.198;22.084;2023-08-21T13:13:07;11;10;
63707;PMS5003;67643;-34.198;22.084;2023-08-21T13:15:35;12;12;
63707;PMS5003;67643;-34.198;22.084;2023-08-21T13:18:04;17;12;
63707;PMS5003;67643;-34.198;22.084;2023-08-21T13:20:33;14;9;
63707;PMS5003;67643;-34.198;22.084;2023-08-21T13:23:01;11;10;
63707;PMS5003;67643;-34.198;22.084;2023-08-21T13:25:30;9;7;
63707;PMS5003;67643;-34.198;22.084;2023-08-21T13:28:00;8;8;
63707;PMS5003;67643;-34.198;22.084;2023-08-21T13:30:29;12;8;
63707;PMS5003;67643;-34.198;22.084;2023-08-21T13:32:57;9;6;
63707;PMS5003;67643;-34.198;22.084;2023-08-21T13:35:26;11;9;
63707;PMS5003;67643;-34.198;22.084;2023-08-21T13:37:54;11;7;
63707;PMS5003;67643;-34.198;22.084;2023-08-21T13:40:23;8;6;
63707;PMS5003;67643;-34.198;22.084;2023-08-21T13:42:52;5;5;
63707;PMS5003;67643;-34.198;22.084;2023-08-21T13:45:22;5;5;
63707;PMS5003;67643;-34.198;22.084;2023-08-21T13:47:51;9;5;
63707;PMS5003;67643;-34.198;22.084;2023-08-21T13:50:19;8;7;
63707;PMS5003;67643;-34.198;22.084;2023-08-21T13:52:48;8;5;
63707;PMS5003;67643;-34.198;22.084;2023-08-21T13:55:16;8;5;
63707;PMS5003;67643;-34.198;22.084;2023-08-21T13:57:45;9;6;
63707;PMS5003;67643;-34.198;22.084;2023-08-21T14:00:13;10;6;
63707;PMS5003;67643;-34.198;22.084;2023-08-21T14:02:42;8;6;
63707;PMS5003;67643;-34.198;22.084;2023-08-21T14:05:11;19;8;
63707;PMS5003;67643;-34.198;22.084;2023-08-21T14:07:40;8;3;
63707;PMS5003;67643;-34.198;22.084;2023-08-21T14:10:09;13;6;
63707;PMS5003;67643;-34.198;22.084;2023-08-21T14:12:38;9;4;
63707;PMS5003;67643;-34.198;22.084;2023-08-21T14:15:06;8;5;
63707;PMS5003;67643;-34.198;22.084;2023-08-21T14:17:36;11;5;
63707;PMS5003;67643;-34.198;22.084;2023-08-21T14:20:05;10;5;
63707;PMS5003;67643;-34.198;22.084;2023-08-21T14:22:33;11;4;
63707;PMS5003;67643;-34.198;22.084;2023-08-21T14:25:02;6;6;
63707;PMS5003;67643;-34.198;22.084;2023-08-21T14:27:31;8;4;
63707;PMS5003;67643;-34.198;22.084;2023-08-21T14:29:59;10;6;
63707;PMS5003;67643;-34.198;22.084;2023-08-21T14:32:28;4;4;
63707;PMS5003;67643;-34.198;22.084;2023-08-21T14:34:56;5;3;
63707;PMS5003;67643;-34.198;22.084;2023-08-21T14:37:25;6;6;
63707;PMS5003;67643;-34.198;22.084;2023-08-21T14:39:53;10;7;
63707;PMS5003;67643;-34.198;22.084;2023-08-21T14:42:22;11;5;
63707;PMS5003;67643;-34.198;22.084;2023-08-21T14:44:50;8;5;
63707;PMS5003;67643;-34.198;22.084;2023-08-21T14:47:19;7;4;
63707;PMS5003;67643;-34.198;22.084;2023-08-21T14:49:48;11;6;
63707;PMS5003;67643;-34.198;22.084;2023-08-21T14:52:17;12;6;
63707;PMS5003;67643;-34.198;22.084;2023-08-21T14:54:45;9;6;
63707;PMS5003;67643;-34.198;22.084;2023-08-21T14:57:17;9;4;
63707;PMS5003;67643;-34.198;22.084;2023-08-21T14:59:46;8;5;
63707;PMS5003;67643;-34.198;22.084;2023-08-21T15:02:14;7;6;
63707;PMS5003;67643;-34.198;22.084;2023-08-21T15:04:42;8;5;
63707;PMS5003;67643;-34.198;22.084;2023-08-21T15:07:11;9;7;
63707;PMS5003;67643;-34.198;22.084;2023-08-21T15:09:39;8;6;
63707;PMS5003;67643;-34.198;22.084;2023-08-21T15:12:08;17;7;
63707;PMS5003;67643;-34.198;22.084;2023-08-21T15:14:37;15;9;
63707;PMS5003;67643;-34.198;22.084;2023-08-21T15:17:06;7;4;
63707;PMS5003;67643;-34.198;22.084;2023-08-21T15:19:34;7;5;
63707;PMS5003;67643;-34.198;22.084;2023-08-21T15:22:02;9;4;
63707;PMS5003;67643;-34.198;22.084;2023-08-21T15:24:31;8;5;
63707;PMS5003;67643;-34.198;22.084;2023-08-21T15:27:00;7;3;
63707;PMS5003;67643;-34.198;22.084;2023-08-21T15:29:28;6;4;
63707;PMS5003;67643;-34.198;22.084;2023-08-21T15:31:57;8;5;
63707;PMS5003;67643;-34.198;22.084;2023-08-21T15:34:26;12;5;
63707;PMS5003;67643;-34.198;22.084;2023-08-21T15:36:55;10;4;
63707;PMS5003;67643;-34.198;22.084;2023-08-21T15:39:23;15;5;
63707;PMS5003;67643;-34.198;22.084;2023-08-21T15:41:51;8;6;
63707;PMS5003;67643;-34.198;22.084;2023-08-21T15:44:20;13;7;
63707;PMS5003;67643;-34.198;22.084;2023-08-21T15:46:48;9;4;
63707;PMS5003;67643;-34.198;22.084;2023-08-21T15:49:17;8;4;
63707;PMS5003;67643;-34.198;22.084;2023-08-21T15:51:45;6;4;
63707;PMS5003;67643;-34.198;22.084;2023-08-21T15:54:14;10;7;
63707;PMS5003;67643;-34.198;22.084;2023-08-21T15:56:45;10;4;
63707;PMS5003;67643;-34.198;22.084;2023-08-21T15:59:13;7;6;
63707;PMS5003;67643;-34.198;22.084;2023-08-21T16:01:42;4;4;
63707;PMS5003;67643;-34.198;22.084;2023-08-21T18:06:45;4;2;
63707;PMS5003;67643;-34.198;22.084;2023-08-21T18:09:14;9;5;
63707;PMS5003;67643;-34.198;22.084;2023-08-21T18:11:42;5;3;
63707;PMS5003;67643;-34.198;22.084;2023-08-21T18:14:11;3;2;
63707;PMS5003;67643;-34.198;22.084;2023-08-21T18:16:40;3;3;
63707;PMS5003;67643;-34.198;22.084;2023-08-21T18:19:08;7;5;
63707;PMS5003;67643;-34.198;22.084;2023-08-21T18:21:37;7;3;
63707;PMS5003;67643;-34.198;22.084;2023-08-21T18:24:06;5;4;
63707;PMS5003;67643;-34.198;22.084;2023-08-21T18:26:34;9;6;